createdAt,value
2017-06-11T00:00:26.491Z,0
2017-06-11T00:01:27.065Z,0
2017-06-11T00:02:27.646Z,0
2017-06-11T00:03:28.226Z,0
2017-06-11T00:04:28.805Z,0
2017-06-11T00:05:29.383Z,0
2017-06-11T00:06:29.962Z,0
2017-06-11T00:07:30.544Z,0
2017-06-11T00:08:31.130Z,0
2017-06-11T00:09:31.709Z,0
2017-06-11T00:10:32.288Z,0
2017-06-11T00:11:32.868Z,0
2017-06-11T00:12:33.461Z,0
2017-06-11T00:13:34.039Z,0
2017-06-11T00:14:34.620Z,0
2017-06-11T00:15:35.213Z,0
2017-06-11T00:16:35.791Z,0
2017-06-11T00:17:36.371Z,0
2017-06-11T00:18:36.948Z,0
2017-06-11T00:19:37.528Z,0
2017-06-11T00:20:38.107Z,0
2017-06-11T00:21:38.698Z,0
2017-06-11T00:22:39.279Z,0
2017-06-11T00:23:39.858Z,0
2017-06-11T00:24:40.434Z,0
2017-06-11T00:25:41.011Z,0
2017-06-11T00:26:41.589Z,0
2017-06-11T00:27:42.168Z,0
2017-06-11T00:28:42.746Z,0
2017-06-11T00:29:43.337Z,0
2017-06-11T00:30:43.929Z,0
2017-06-11T00:31:44.507Z,0
2017-06-11T00:32:45.086Z,0
2017-06-11T00:33:45.665Z,0
2017-06-11T00:34:46.245Z,0
2017-06-11T00:35:46.822Z,0
2017-06-11T00:36:47.400Z,0
2017-06-11T00:37:47.977Z,0
2017-06-11T00:38:48.555Z,0
2017-06-11T00:39:49.135Z,0
2017-06-11T00:40:49.725Z,0
2017-06-11T00:41:50.304Z,0
2017-06-11T00:42:50.883Z,0
2017-06-11T00:43:51.474Z,0
2017-06-11T00:44:52.053Z,0
2017-06-11T00:45:52.632Z,0
2017-06-11T00:46:53.225Z,0
2017-06-11T00:47:53.804Z,0
2017-06-11T00:48:54.397Z,0
2017-06-11T00:49:54.975Z,0
2017-06-11T00:50:55.555Z,0
2017-06-11T00:51:56.147Z,0
2017-06-11T00:52:56.725Z,0
2017-06-11T00:53:57.305Z,0
2017-06-11T00:54:57.883Z,0
2017-06-11T00:55:58.463Z,0
2017-06-11T00:56:59.039Z,0
2017-06-11T00:57:59.617Z,0
2017-06-11T00:59:00.195Z,0
2017-06-11T01:00:00.773Z,0
2017-06-11T01:01:01.350Z,0
2017-06-11T01:02:01.928Z,0
2017-06-11T01:03:02.506Z,0
2017-06-11T01:04:03.086Z,0
2017-06-11T01:05:03.665Z,0
2017-06-11T01:06:04.245Z,0
2017-06-11T01:07:04.827Z,0
2017-06-11T01:08:05.405Z,0
2017-06-11T01:09:05.982Z,0
2017-06-11T01:10:06.562Z,0
2017-06-11T01:11:07.138Z,0
2017-06-11T01:12:07.716Z,0
2017-06-11T01:13:08.306Z,0
2017-06-11T01:14:08.901Z,0
2017-06-11T01:15:09.475Z,0
2017-06-11T01:16:10.052Z,0
2017-06-11T01:17:10.630Z,0
2017-06-11T01:18:11.207Z,0
2017-06-11T01:19:11.787Z,0
2017-06-11T01:20:12.376Z,0
2017-06-11T01:21:12.954Z,0
2017-06-11T01:22:13.536Z,0
2017-06-11T01:23:14.125Z,0
2017-06-11T01:24:14.703Z,0
2017-06-11T01:25:15.281Z,0
2017-06-11T01:26:15.859Z,0
2017-06-11T01:27:16.439Z,0
2017-06-11T01:28:17.016Z,0
2017-06-11T01:29:17.595Z,0
2017-06-11T01:30:18.172Z,0
2017-06-11T01:31:18.748Z,0
2017-06-11T01:32:19.337Z,0
2017-06-11T01:33:19.915Z,0
2017-06-11T01:34:20.494Z,0
2017-06-11T01:35:21.071Z,0
2017-06-11T01:36:21.649Z,0
2017-06-11T01:37:22.227Z,0
2017-06-11T01:38:22.801Z,0
2017-06-11T01:39:23.378Z,0
2017-06-11T01:40:23.954Z,0
2017-06-11T01:41:24.531Z,0
2017-06-11T01:42:25.108Z,0
2017-06-11T01:43:25.685Z,0
2017-06-11T01:44:26.261Z,0
2017-06-11T01:45:26.849Z,0
2017-06-11T01:46:27.425Z,0
2017-06-11T01:47:28.015Z,0
2017-06-11T01:48:28.593Z,0
2017-06-11T01:49:29.170Z,0
2017-06-11T01:50:29.748Z,0
2017-06-11T01:51:30.324Z,0
2017-06-11T01:52:30.901Z,0
2017-06-11T01:53:31.478Z,0
2017-06-11T01:54:32.056Z,0
2017-06-11T01:55:32.632Z,0
2017-06-11T01:56:33.209Z,0
2017-06-11T01:57:33.786Z,0
2017-06-11T01:58:34.362Z,0
2017-06-11T01:59:34.939Z,0
2017-06-11T02:00:35.516Z,0
2017-06-11T02:01:36.093Z,0
2017-06-11T02:02:36.669Z,0
2017-06-11T02:03:37.245Z,0
2017-06-11T02:04:37.824Z,0
2017-06-11T02:05:38.402Z,0
2017-06-11T02:06:38.979Z,0
2017-06-11T02:07:39.558Z,0
2017-06-11T02:08:40.133Z,0
2017-06-11T02:09:40.716Z,0
2017-06-11T02:10:41.287Z,0
2017-06-11T02:11:41.865Z,0
2017-06-11T02:12:42.441Z,0
2017-06-11T02:13:43.018Z,0
2017-06-11T02:14:43.607Z,0
2017-06-11T02:15:44.185Z,0
2017-06-11T02:16:44.773Z,0
2017-06-11T02:17:45.364Z,0
2017-06-11T02:18:45.939Z,0
2017-06-11T02:19:46.516Z,0
2017-06-11T02:20:47.093Z,0
2017-06-11T02:21:47.670Z,0
2017-06-11T02:22:48.246Z,0
2017-06-11T02:23:48.825Z,0
2017-06-11T02:24:49.402Z,0
2017-06-11T02:25:49.980Z,0
2017-06-11T02:26:50.559Z,0
2017-06-11T02:27:51.134Z,0
2017-06-11T02:28:51.711Z,0
2017-06-11T02:29:52.288Z,0
2017-06-11T02:30:52.864Z,0
2017-06-11T02:31:53.440Z,0
2017-06-11T02:32:54.017Z,0
2017-06-11T02:33:54.595Z,0
2017-06-11T02:34:55.171Z,0
2017-06-11T02:35:55.747Z,0
2017-06-11T02:36:56.324Z,0
2017-06-11T02:37:56.912Z,0
2017-06-11T02:38:57.488Z,0
2017-06-11T02:39:58.064Z,0
2017-06-11T02:40:58.640Z,0
2017-06-11T02:41:59.216Z,4
2017-06-11T02:42:59.792Z,0
2017-06-11T02:44:00.370Z,0
2017-06-11T02:45:00.946Z,0
2017-06-11T02:46:01.523Z,4
2017-06-11T02:47:02.099Z,4
2017-06-11T02:48:02.689Z,0
2017-06-11T02:49:03.267Z,0
2017-06-11T02:50:03.842Z,4
2017-06-11T02:51:04.419Z,0
2017-06-11T02:52:04.994Z,4
2017-06-11T02:53:05.570Z,4
2017-06-11T02:54:06.149Z,4
2017-06-11T02:55:06.723Z,4
2017-06-11T02:56:07.298Z,4
2017-06-11T02:57:07.874Z,8
2017-06-11T02:58:08.449Z,4
2017-06-11T02:59:09.025Z,8
2017-06-11T03:00:09.604Z,8
2017-06-11T03:01:10.178Z,8
2017-06-11T03:02:10.759Z,12
2017-06-11T03:03:11.336Z,12
2017-06-11T03:04:11.916Z,12
2017-06-11T03:05:12.493Z,8
2017-06-11T03:06:13.070Z,16
2017-06-11T03:07:13.661Z,12
2017-06-11T03:08:14.237Z,12
2017-06-11T03:09:14.832Z,16
2017-06-11T03:10:15.417Z,16
2017-06-11T03:11:15.993Z,20
2017-06-11T03:12:16.569Z,20
2017-06-11T03:13:17.150Z,20
2017-06-11T03:14:17.726Z,24
2017-06-11T03:15:18.305Z,24
2017-06-11T03:16:18.880Z,24
2017-06-11T03:17:19.459Z,28
2017-06-11T03:18:20.051Z,28
2017-06-11T03:19:20.627Z,32
2017-06-11T03:20:21.207Z,36
2017-06-11T03:21:21.782Z,36
2017-06-11T03:22:22.360Z,40
2017-06-11T03:23:22.937Z,36
2017-06-11T03:24:23.513Z,40
2017-06-11T03:25:24.091Z,44
2017-06-11T03:26:24.668Z,44
2017-06-11T03:27:25.246Z,44
2017-06-11T03:28:25.825Z,48
2017-06-11T03:29:26.404Z,52
2017-06-11T03:30:26.981Z,52
2017-06-11T03:31:27.558Z,56
2017-06-11T03:32:28.155Z,56
2017-06-11T03:33:28.725Z,60
2017-06-11T03:34:29.317Z,60
2017-06-11T03:35:29.898Z,60
2017-06-11T03:36:30.473Z,60
2017-06-11T03:37:31.051Z,64
2017-06-11T03:38:31.630Z,64
2017-06-11T03:39:32.205Z,68
2017-06-11T03:40:32.783Z,68
2017-06-11T03:41:33.374Z,64
2017-06-11T03:42:33.952Z,68
2017-06-11T03:43:34.530Z,68
2017-06-11T03:44:35.108Z,68
2017-06-11T03:45:35.688Z,72
2017-06-11T03:46:36.267Z,72
2017-06-11T03:47:36.845Z,76
2017-06-11T03:48:37.423Z,76
2017-06-11T03:49:38.000Z,76
2017-06-11T03:50:38.578Z,80
2017-06-11T03:51:39.154Z,80
2017-06-11T03:52:39.733Z,84
2017-06-11T03:53:40.310Z,84
2017-06-11T03:54:40.889Z,88
2017-06-11T03:55:41.467Z,92
2017-06-11T03:56:42.071Z,96
2017-06-11T03:57:42.624Z,96
2017-06-11T03:58:43.201Z,96
2017-06-11T03:59:43.779Z,100
2017-06-11T04:00:44.371Z,104
2017-06-11T04:01:44.950Z,104
2017-06-11T04:02:45.528Z,112
2017-06-11T04:03:46.105Z,120
2017-06-11T04:04:46.685Z,124
2017-06-11T04:05:47.264Z,124
2017-06-11T04:06:47.845Z,128
2017-06-11T04:07:48.423Z,128
2017-06-11T04:08:49.002Z,132
2017-06-11T04:09:49.581Z,132
2017-06-11T04:10:50.162Z,144
2017-06-11T04:11:50.742Z,148
2017-06-11T04:12:51.319Z,156
2017-06-11T04:13:51.899Z,188
2017-06-11T04:14:52.479Z,204
2017-06-11T04:15:53.059Z,212
2017-06-11T04:16:53.640Z,228
2017-06-11T04:17:54.220Z,228
2017-06-11T04:18:54.799Z,232
2017-06-11T04:19:55.377Z,236
2017-06-11T04:20:55.961Z,236
2017-06-11T04:21:56.540Z,236
2017-06-11T04:22:57.132Z,236
2017-06-11T04:23:57.713Z,236
2017-06-11T04:24:58.295Z,240
2017-06-11T04:25:58.875Z,220
2017-06-11T04:26:59.462Z,228
2017-06-11T04:28:00.048Z,248
2017-06-11T04:29:00.626Z,252
2017-06-11T04:30:01.208Z,252
2017-06-11T04:31:01.788Z,256
2017-06-11T04:32:02.369Z,224
2017-06-11T04:33:02.948Z,204
2017-06-11T04:34:03.527Z,208
2017-06-11T04:35:04.106Z,224
2017-06-11T04:36:04.686Z,212
2017-06-11T04:37:05.267Z,216
2017-06-11T04:38:05.858Z,220
2017-06-11T04:39:06.440Z,220
2017-06-11T04:40:07.021Z,224
2017-06-11T04:41:07.603Z,228
2017-06-11T04:42:08.182Z,232
2017-06-11T04:43:08.775Z,232
2017-06-11T04:44:09.356Z,232
2017-06-11T04:45:09.938Z,236
2017-06-11T04:46:10.519Z,240
2017-06-11T04:47:11.101Z,240
2017-06-11T04:48:11.681Z,236
2017-06-11T04:49:12.261Z,236
2017-06-11T04:50:12.845Z,236
2017-06-11T04:51:13.423Z,240
2017-06-11T04:52:14.005Z,244
2017-06-11T04:53:14.584Z,240
2017-06-11T04:54:15.164Z,240
2017-06-11T04:55:15.748Z,236
2017-06-11T04:56:16.328Z,240
2017-06-11T04:57:16.922Z,244
2017-06-11T04:58:17.504Z,244
2017-06-11T04:59:18.085Z,252
2017-06-11T05:00:18.666Z,252
2017-06-11T05:01:19.249Z,260
2017-06-11T05:02:19.830Z,268
2017-06-11T05:03:20.412Z,280
2017-06-11T05:04:20.994Z,284
2017-06-11T05:05:21.575Z,280
2017-06-11T05:06:22.168Z,280
2017-06-11T05:07:22.747Z,276
2017-06-11T05:08:23.329Z,276
2017-06-11T05:09:23.911Z,284
2017-06-11T05:10:24.492Z,284
2017-06-11T05:11:25.073Z,280
2017-06-11T05:12:25.657Z,276
2017-06-11T05:13:26.238Z,264
2017-06-11T05:14:26.819Z,268
2017-06-11T05:15:27.400Z,272
2017-06-11T05:16:27.994Z,272
2017-06-11T05:17:28.576Z,280
2017-06-11T05:18:29.157Z,288
2017-06-11T05:19:29.738Z,296
2017-06-11T05:20:30.321Z,296
2017-06-11T05:21:30.908Z,304
2017-06-11T05:22:31.496Z,308
2017-06-11T05:23:32.078Z,308
2017-06-11T05:24:32.659Z,312
2017-06-11T05:25:33.241Z,316
2017-06-11T05:26:33.825Z,324
2017-06-11T05:27:34.406Z,348
2017-06-11T05:28:34.987Z,340
2017-06-11T05:29:35.568Z,348
2017-06-11T05:30:36.151Z,364
2017-06-11T05:31:36.734Z,372
2017-06-11T05:32:37.314Z,372
2017-06-11T05:33:37.909Z,372
2017-06-11T05:34:38.491Z,368
2017-06-11T05:35:39.071Z,364
2017-06-11T05:36:39.653Z,364
2017-06-11T05:37:40.236Z,364
2017-06-11T05:38:40.817Z,364
2017-06-11T05:39:41.398Z,360
2017-06-11T05:40:41.978Z,352
2017-06-11T05:41:42.560Z,352
2017-06-11T05:42:43.143Z,356
2017-06-11T05:43:43.724Z,360
2017-06-11T05:44:44.305Z,364
2017-06-11T05:45:44.887Z,364
2017-06-11T05:46:45.468Z,372
2017-06-11T05:47:46.052Z,380
2017-06-11T05:48:46.633Z,384
2017-06-11T05:49:47.213Z,388
2017-06-11T05:50:47.802Z,384
2017-06-11T05:51:48.392Z,392
2017-06-11T05:52:48.974Z,400
2017-06-11T05:53:49.558Z,408
2017-06-11T05:54:50.139Z,412
2017-06-11T05:55:50.721Z,412
2017-06-11T05:56:51.315Z,412
2017-06-11T05:57:51.895Z,412
2017-06-11T05:58:52.477Z,412
2017-06-11T05:59:53.060Z,408
2017-06-11T06:00:53.640Z,408
2017-06-11T06:01:54.222Z,420
2017-06-11T06:02:54.802Z,428
2017-06-11T06:03:55.384Z,440
2017-06-11T06:04:55.969Z,452
2017-06-11T06:05:56.549Z,468
2017-06-11T06:06:57.130Z,492
2017-06-11T06:07:57.710Z,512
2017-06-11T06:08:58.292Z,528
2017-06-11T06:09:58.876Z,540
2017-06-11T06:10:59.455Z,544
2017-06-11T06:12:00.036Z,556
2017-06-11T06:13:00.617Z,568
2017-06-11T06:14:01.199Z,580
2017-06-11T06:15:01.781Z,588
2017-06-11T06:16:02.363Z,592
2017-06-11T06:17:02.946Z,592
2017-06-11T06:18:03.527Z,580
2017-06-11T06:19:04.109Z,572
2017-06-11T06:20:04.693Z,572
2017-06-11T06:21:05.275Z,568
2017-06-11T06:22:05.854Z,560
2017-06-11T06:23:06.441Z,552
2017-06-11T06:24:07.016Z,548
2017-06-11T06:25:07.600Z,552
2017-06-11T06:26:08.182Z,564
2017-06-11T06:27:08.762Z,580
2017-06-11T06:28:09.342Z,592
2017-06-11T06:29:09.925Z,600
2017-06-11T06:30:10.508Z,612
2017-06-11T06:31:11.090Z,624
2017-06-11T06:32:11.674Z,636
2017-06-11T06:33:12.267Z,640
2017-06-11T06:34:12.847Z,632
2017-06-11T06:35:13.428Z,620
2017-06-11T06:36:14.015Z,624
2017-06-11T06:37:14.593Z,628
2017-06-11T06:38:15.179Z,628
2017-06-11T06:39:15.770Z,632
2017-06-11T06:40:16.352Z,628
2017-06-11T06:41:16.932Z,612
2017-06-11T06:42:17.516Z,616
2017-06-11T06:43:18.098Z,620
2017-06-11T06:44:18.681Z,628
2017-06-11T06:45:19.263Z,628
2017-06-11T06:46:19.844Z,624
2017-06-11T06:47:20.428Z,620
2017-06-11T06:48:21.011Z,616
2017-06-11T06:49:21.593Z,604
2017-06-11T06:50:22.175Z,600
2017-06-11T06:51:22.771Z,616
2017-06-11T06:52:23.354Z,644
2017-06-11T06:53:23.935Z,696
2017-06-11T06:54:24.518Z,748
2017-06-11T06:55:25.101Z,728
2017-06-11T06:56:25.682Z,736
2017-06-11T06:57:26.265Z,712
2017-06-11T06:58:26.848Z,736
2017-06-11T06:59:27.429Z,764
2017-06-11T07:00:28.012Z,792
2017-06-11T07:01:28.593Z,792
2017-06-11T07:02:29.175Z,820
2017-06-11T07:03:29.759Z,808
2017-06-11T07:04:30.343Z,812
2017-06-11T07:05:30.923Z,820
2017-06-11T07:06:31.504Z,832
2017-06-11T07:07:32.088Z,848
2017-06-11T07:08:32.671Z,820
2017-06-11T07:09:33.253Z,844
2017-06-11T07:10:33.835Z,812
2017-06-11T07:11:34.417Z,800
2017-06-11T07:12:34.999Z,796
2017-06-11T07:13:35.583Z,776
2017-06-11T07:14:36.165Z,748
2017-06-11T07:15:36.746Z,720
2017-06-11T07:16:37.329Z,708
2017-06-11T07:17:37.914Z,716
2017-06-11T07:18:38.495Z,748
2017-06-11T07:19:39.078Z,792
2017-06-11T07:20:39.674Z,788
2017-06-11T07:21:40.255Z,784
2017-06-11T07:22:40.836Z,804
2017-06-11T07:23:41.418Z,844
2017-06-11T07:24:42.004Z,896
2017-06-11T07:25:42.585Z,884
2017-06-11T07:26:43.167Z,840
2017-06-11T07:27:43.753Z,896
2017-06-11T07:28:44.333Z,904
2017-06-11T07:29:44.918Z,896
2017-06-11T07:30:45.500Z,936
2017-06-11T07:31:46.082Z,796
2017-06-11T07:32:46.666Z,780
2017-06-11T07:33:47.248Z,732
2017-06-11T07:34:47.832Z,816
2017-06-11T07:35:48.415Z,820
2017-06-11T07:36:48.998Z,872
2017-06-11T07:37:49.581Z,716
2017-06-11T07:38:50.163Z,756
2017-06-11T07:39:50.747Z,708
2017-06-11T07:40:51.329Z,828
2017-06-11T07:41:51.912Z,792
2017-06-11T07:42:52.495Z,728
2017-06-11T07:43:53.078Z,716
2017-06-11T07:44:53.662Z,692
2017-06-11T07:45:54.243Z,684
2017-06-11T07:46:54.827Z,696
2017-06-11T07:47:55.411Z,756
2017-06-11T07:48:55.995Z,952
2017-06-11T07:49:56.592Z,1136
2017-06-11T07:50:57.174Z,1044
2017-06-11T07:51:57.758Z,1000
2017-06-11T07:52:58.341Z,988
2017-06-11T07:53:58.924Z,884
2017-06-11T07:54:59.506Z,928
2017-06-11T07:56:00.089Z,888
2017-06-11T07:57:00.673Z,860
2017-06-11T07:58:01.269Z,868
2017-06-11T07:59:01.851Z,872
2017-06-11T08:00:02.435Z,844
2017-06-11T08:01:03.017Z,872
2017-06-11T08:02:03.600Z,868
2017-06-11T08:03:04.181Z,852
2017-06-11T08:04:04.765Z,916
2017-06-11T08:05:05.350Z,924
2017-06-11T08:06:05.932Z,876
2017-06-11T08:07:06.516Z,860
2017-06-11T08:08:07.098Z,848
2017-06-11T08:09:07.681Z,828
2017-06-11T08:10:08.265Z,908
2017-06-11T08:11:08.848Z,932
2017-06-11T08:12:09.433Z,968
2017-06-11T08:13:10.015Z,940
2017-06-11T08:14:10.602Z,892
2017-06-11T08:15:11.183Z,804
2017-06-11T08:16:11.765Z,832
2017-06-11T08:17:12.349Z,828
2017-06-11T08:18:12.932Z,888
2017-06-11T08:19:13.516Z,808
2017-06-11T08:20:14.101Z,868
2017-06-11T08:21:14.685Z,856
2017-06-11T08:22:15.269Z,916
2017-06-11T08:23:15.853Z,932
2017-06-11T08:24:16.434Z,896
2017-06-11T08:25:17.032Z,1136
2017-06-11T08:26:17.616Z,876
2017-06-11T08:27:18.199Z,892
2017-06-11T08:28:18.784Z,1112
2017-06-11T08:29:19.370Z,916
2017-06-11T08:30:19.953Z,928
2017-06-11T08:31:20.538Z,832
2017-06-11T08:32:21.121Z,1124
2017-06-11T08:33:21.706Z,904
2017-06-11T08:34:22.289Z,820
2017-06-11T08:35:22.878Z,1152
2017-06-11T08:36:23.458Z,744
2017-06-11T08:37:24.042Z,1032
2017-06-11T08:38:24.627Z,1000
2017-06-11T08:39:25.213Z,996
2017-06-11T08:40:25.797Z,852
2017-06-11T08:41:26.381Z,984
2017-06-11T08:42:26.967Z,1000
2017-06-11T08:43:27.551Z,904
2017-06-11T08:44:28.135Z,1112
2017-06-11T08:45:28.718Z,888
2017-06-11T08:46:29.301Z,908
2017-06-11T08:47:29.889Z,1048
2017-06-11T08:48:30.471Z,832
2017-06-11T08:49:31.068Z,1000
2017-06-11T08:50:31.652Z,820
2017-06-11T08:51:32.237Z,968
2017-06-11T08:52:32.818Z,880
2017-06-11T08:53:33.403Z,924
2017-06-11T08:54:33.984Z,976
2017-06-11T08:55:34.570Z,1116
2017-06-11T08:56:35.151Z,800
2017-06-11T08:57:35.736Z,812
2017-06-11T08:58:36.322Z,1084
2017-06-11T08:59:36.906Z,1144
2017-06-11T09:00:37.503Z,1056
2017-06-11T09:01:38.086Z,988
2017-06-11T09:02:38.670Z,928
2017-06-11T09:03:39.254Z,1256
2017-06-11T09:04:39.838Z,1068
2017-06-11T09:05:40.424Z,1024
2017-06-11T09:06:41.007Z,1084
2017-06-11T09:07:41.592Z,1096
2017-06-11T09:08:42.176Z,1008
2017-06-11T09:09:42.759Z,1140
2017-06-11T09:10:43.356Z,1268
2017-06-11T09:11:43.941Z,1256
2017-06-11T09:12:44.527Z,1236
2017-06-11T09:13:45.110Z,1264
2017-06-11T09:14:45.693Z,1096
2017-06-11T09:15:46.276Z,1092
2017-06-11T09:16:46.861Z,1076
2017-06-11T09:17:47.444Z,1216
2017-06-11T09:18:48.031Z,1156
2017-06-11T09:19:48.613Z,1092
2017-06-11T09:20:49.198Z,1152
2017-06-11T09:21:49.782Z,1124
2017-06-11T09:22:50.366Z,1100
2017-06-11T09:23:50.949Z,1060
2017-06-11T09:24:51.534Z,1048
2017-06-11T09:25:52.130Z,1040
2017-06-11T09:26:52.714Z,1084
2017-06-11T09:27:53.300Z,1068
2017-06-11T09:28:53.883Z,1120
2017-06-11T09:29:54.467Z,1080
2017-06-11T09:30:55.064Z,1052
2017-06-11T09:31:55.650Z,1144
2017-06-11T09:32:56.233Z,1084
2017-06-11T09:33:56.818Z,1076
2017-06-11T09:34:57.415Z,1080
2017-06-11T09:35:58.002Z,1096
2017-06-11T09:36:58.582Z,1120
2017-06-11T09:37:59.168Z,1104
2017-06-11T09:38:59.752Z,1040
2017-06-11T09:40:00.336Z,1108
2017-06-11T09:41:00.922Z,1092
2017-06-11T09:42:01.507Z,1076
2017-06-11T09:43:02.103Z,1048
2017-06-11T09:44:02.691Z,1020
2017-06-11T09:45:03.270Z,1024
2017-06-11T09:46:03.866Z,1016
2017-06-11T09:47:04.450Z,1028
2017-06-11T09:48:05.035Z,1012
2017-06-11T09:49:05.619Z,1016
2017-06-11T09:50:06.204Z,1032
2017-06-11T09:51:06.787Z,1136
2017-06-11T09:52:07.371Z,1048
2017-06-11T09:53:07.957Z,1044
2017-06-11T09:54:08.542Z,1032
2017-06-11T09:55:09.126Z,1016
2017-06-11T09:56:09.721Z,1056
2017-06-11T09:57:10.330Z,1096
2017-06-11T09:58:10.888Z,1156
2017-06-11T09:59:11.473Z,1148
2017-06-11T10:00:12.058Z,1112
2017-06-11T10:01:12.640Z,1136
2017-06-11T10:02:13.226Z,1252
2017-06-11T10:03:13.809Z,1272
2017-06-11T10:04:14.394Z,1072
2017-06-11T10:05:14.978Z,1168
2017-06-11T10:06:15.563Z,1124
2017-06-11T10:07:16.150Z,1108
2017-06-11T10:08:16.745Z,1144
2017-06-11T10:09:17.328Z,1236
2017-06-11T10:10:17.911Z,1256
2017-06-11T10:11:18.495Z,1500
2017-06-11T10:12:19.083Z,1268
2017-06-11T10:13:19.665Z,1128
2017-06-11T10:14:20.249Z,1316
2017-06-11T10:15:20.832Z,1176
2017-06-11T10:16:21.418Z,1528
2017-06-11T10:17:22.016Z,1192
2017-06-11T10:18:22.600Z,1536
2017-06-11T10:19:23.186Z,1440
2017-06-11T10:20:23.782Z,1392
2017-06-11T10:21:24.366Z,1592
2017-06-11T10:22:24.950Z,1488
2017-06-11T10:23:25.535Z,1316
2017-06-11T10:24:26.119Z,1296
2017-06-11T10:25:26.702Z,1256
2017-06-11T10:26:27.288Z,1188
2017-06-11T10:27:27.873Z,1168
2017-06-11T10:28:28.471Z,1164
2017-06-11T10:29:29.059Z,1140
2017-06-11T10:30:29.657Z,1084
2017-06-11T10:31:30.251Z,1056
2017-06-11T10:32:30.836Z,1060
2017-06-11T10:33:31.425Z,1136
2017-06-11T10:34:32.005Z,1108
2017-06-11T10:35:32.590Z,1052
2017-06-11T10:36:33.176Z,1052
2017-06-11T10:37:33.760Z,1040
2017-06-11T10:38:34.352Z,1040
2017-06-11T10:39:34.929Z,1128
2017-06-11T10:40:35.514Z,1124
2017-06-11T10:41:36.099Z,1020
2017-06-11T10:42:36.684Z,1028
2017-06-11T10:43:37.281Z,1028
2017-06-11T10:44:37.865Z,972
2017-06-11T10:45:38.459Z,948
2017-06-11T10:46:39.035Z,972
2017-06-11T10:47:39.618Z,944
2017-06-11T10:48:40.215Z,940
2017-06-11T10:49:40.798Z,952
2017-06-11T10:50:41.395Z,1104
2017-06-11T10:51:41.978Z,1132
2017-06-11T10:52:42.567Z,1184
2017-06-11T10:53:43.160Z,1184
2017-06-11T10:54:43.746Z,1380
2017-06-11T10:55:44.331Z,1268
2017-06-11T10:56:44.915Z,1312
2017-06-11T10:57:45.500Z,1220
2017-06-11T10:58:46.097Z,1220
2017-06-11T10:59:46.683Z,1376
2017-06-11T11:00:47.279Z,1412
2017-06-11T11:01:47.864Z,1320
2017-06-11T11:02:48.450Z,1244
2017-06-11T11:03:49.035Z,1276
2017-06-11T11:04:49.618Z,1292
2017-06-11T11:05:50.204Z,1244
2017-06-11T11:06:50.797Z,1320
2017-06-11T11:07:51.378Z,1388
2017-06-11T11:08:51.974Z,1504
2017-06-11T11:09:52.559Z,1568
2017-06-11T11:10:53.143Z,1480
2017-06-11T11:11:53.731Z,1508
2017-06-11T11:12:54.317Z,1636
2017-06-11T11:13:54.902Z,1392
2017-06-11T11:14:55.486Z,1412
2017-06-11T11:15:56.072Z,1516
2017-06-11T11:16:56.658Z,1396
2017-06-11T11:17:57.257Z,2000
2017-06-11T11:18:57.843Z,1716
2017-06-11T11:19:58.426Z,1640
2017-06-11T11:20:59.012Z,2020
2017-06-11T11:21:59.597Z,1436
2017-06-11T11:23:00.182Z,1492
2017-06-11T11:24:00.767Z,1404
2017-06-11T11:25:01.353Z,1392
2017-06-11T11:26:01.942Z,1392
2017-06-11T11:27:02.527Z,1388
2017-06-11T11:28:03.111Z,1376
2017-06-11T11:29:03.708Z,1400
2017-06-11T11:30:04.294Z,1392
2017-06-11T11:31:04.880Z,1388
2017-06-11T11:32:05.468Z,1380
2017-06-11T11:33:06.054Z,1376
2017-06-11T11:34:06.638Z,1400
2017-06-11T11:35:07.225Z,1408
2017-06-11T11:36:07.811Z,1456
2017-06-11T11:37:08.398Z,1456
2017-06-11T11:38:08.982Z,1520
2017-06-11T11:39:09.568Z,1480
2017-06-11T11:40:10.154Z,1484
2017-06-11T11:41:10.739Z,1608
2017-06-11T11:42:11.337Z,1552
2017-06-11T11:43:11.936Z,1516
2017-06-11T11:44:12.534Z,1540
2017-06-11T11:45:13.119Z,2016
2017-06-11T11:46:13.706Z,1588
2017-06-11T11:47:14.292Z,1516
2017-06-11T11:48:14.879Z,1544
2017-06-11T11:49:15.464Z,1572
2017-06-11T11:50:16.050Z,1768
2017-06-11T11:51:16.647Z,1856
2017-06-11T11:52:17.234Z,1628
2017-06-11T11:53:17.818Z,1580
2017-06-11T11:54:18.405Z,1420
2017-06-11T11:55:18.990Z,1472
2017-06-11T11:56:19.576Z,1544
2017-06-11T11:57:20.163Z,1568
2017-06-11T11:58:20.748Z,1504
2017-06-11T11:59:21.334Z,1428
2017-06-11T12:00:21.922Z,1380
2017-06-11T12:01:22.507Z,1384
2017-06-11T12:02:23.092Z,1380
2017-06-11T12:03:23.677Z,1372
2017-06-11T12:04:24.264Z,1364
2017-06-11T12:05:24.852Z,1352
2017-06-11T12:06:25.437Z,1328
2017-06-11T12:07:26.022Z,1368
2017-06-11T12:08:26.611Z,1364
2017-06-11T12:09:27.195Z,1388
2017-06-11T12:10:27.780Z,1412
2017-06-11T12:11:28.365Z,1436
2017-06-11T12:12:28.950Z,1464
2017-06-11T12:13:29.546Z,1484
2017-06-11T12:14:30.133Z,1508
2017-06-11T12:15:30.721Z,1556
2017-06-11T12:16:31.305Z,1596
2017-06-11T12:17:31.891Z,1560
2017-06-11T12:18:32.476Z,1548
2017-06-11T12:19:33.063Z,1584
2017-06-11T12:20:33.947Z,1696
2017-06-11T12:21:34.533Z,1604
2017-06-11T12:22:35.123Z,1908
2017-06-11T12:23:35.706Z,1652
2017-06-11T12:24:36.289Z,1568
2017-06-11T12:25:36.878Z,1568
2017-06-11T12:26:37.463Z,1984
2017-06-11T12:27:38.048Z,1464
2017-06-11T12:28:38.635Z,1472
2017-06-11T12:29:39.220Z,1876
2017-06-11T12:30:39.808Z,1712
2017-06-11T12:31:40.394Z,1776
2017-06-11T12:32:40.980Z,1860
2017-06-11T12:33:41.568Z,1412
2017-06-11T12:34:42.153Z,1408
2017-06-11T12:35:42.739Z,1448
2017-06-11T12:36:43.327Z,1296
2017-06-11T12:37:43.915Z,1260
2017-06-11T12:38:44.511Z,1240
2017-06-11T12:39:45.098Z,1244
2017-06-11T12:40:45.682Z,1172
2017-06-11T12:41:46.269Z,1148
2017-06-11T12:42:46.857Z,1132
2017-06-11T12:43:47.445Z,1128
2017-06-11T12:44:48.028Z,1128
2017-06-11T12:45:48.614Z,1116
2017-06-11T12:46:49.199Z,1112
2017-06-11T12:47:49.785Z,1104
2017-06-11T12:48:50.371Z,1092
2017-06-11T12:49:50.970Z,1096
2017-06-11T12:50:51.555Z,1096
2017-06-11T12:51:52.142Z,1084
2017-06-11T12:52:52.726Z,1108
2017-06-11T12:53:53.312Z,1120
2017-06-11T12:54:53.898Z,1176
2017-06-11T12:55:54.484Z,1128
2017-06-11T12:56:55.068Z,1140
2017-06-11T12:57:55.652Z,1196
2017-06-11T12:58:56.238Z,1204
2017-06-11T12:59:56.824Z,1224
2017-06-11T13:00:57.410Z,1240
2017-06-11T13:01:57.994Z,1216
2017-06-11T13:02:58.580Z,1176
2017-06-11T13:03:59.165Z,1152
2017-06-11T13:04:59.751Z,1204
2017-06-11T13:06:00.349Z,1216
2017-06-11T13:07:00.932Z,1168
2017-06-11T13:08:01.526Z,1124
2017-06-11T13:09:02.105Z,1068
2017-06-11T13:10:02.689Z,996
2017-06-11T13:11:03.286Z,936
2017-06-11T13:12:03.871Z,884
2017-06-11T13:13:04.454Z,844
2017-06-11T13:14:05.038Z,812
2017-06-11T13:15:05.633Z,784
2017-06-11T13:16:06.217Z,772
2017-06-11T13:17:06.802Z,756
2017-06-11T13:18:07.387Z,740
2017-06-11T13:19:07.971Z,720
2017-06-11T13:20:08.554Z,688
2017-06-11T13:21:09.139Z,652
2017-06-11T13:22:09.724Z,644
2017-06-11T13:23:10.310Z,640
2017-06-11T13:24:10.894Z,644
2017-06-11T13:25:11.477Z,632
2017-06-11T13:26:12.063Z,624
2017-06-11T13:27:12.647Z,616
2017-06-11T13:28:13.233Z,632
2017-06-11T13:29:13.817Z,652
2017-06-11T13:30:14.400Z,676
2017-06-11T13:31:14.986Z,696
2017-06-11T13:32:15.569Z,704
2017-06-11T13:33:16.166Z,712
2017-06-11T13:34:16.751Z,752
2017-06-11T13:35:17.334Z,804
2017-06-11T13:36:17.919Z,828
2017-06-11T13:37:18.508Z,804
2017-06-11T13:38:19.101Z,780
2017-06-11T13:39:19.686Z,760
2017-06-11T13:40:20.271Z,728
2017-06-11T13:41:20.854Z,712
2017-06-11T13:42:21.438Z,708
2017-06-11T13:43:22.033Z,692
2017-06-11T13:44:22.617Z,668
2017-06-11T13:45:23.200Z,636
2017-06-11T13:46:23.785Z,612
2017-06-11T13:47:24.370Z,596
2017-06-11T13:48:24.956Z,604
2017-06-11T13:49:25.539Z,620
2017-06-11T13:50:26.124Z,644
2017-06-11T13:51:26.709Z,656
2017-06-11T13:52:27.292Z,652
2017-06-11T13:53:27.876Z,640
2017-06-11T13:54:28.459Z,616
2017-06-11T13:55:29.043Z,580
2017-06-11T13:56:29.629Z,548
2017-06-11T13:57:30.211Z,556
2017-06-11T13:58:30.799Z,576
2017-06-11T13:59:31.391Z,580